Toronto/Lester B. Pearson International Airport

Airport
ICAO code: 
CYYZ
IATA Code: 
YYZ
Summary
ICAO Region: 
NAM
Territory: 
Location: 
Mississauga, Ontario
Serving: 
Toronto
Elevation: 
569 ft
Coordinates: 
Aerial View: 
43° 40' 20.136" N, 79° 37' 24.096" W
Airport LOS: 
Parallel Runway Operation
Metar
Observation
CYYZ 261900Z 16005KT 130V220 15SM FEW014 FEW030 FEW050 M09/M14 A3037 RMK CF1CF1SC1 CF TR SC TR SLP299
Station
Toronto Pearson Int'L. Ont.
Date/Time
2022-01-26 19:00:00
Wind direction
160°
Wind speed
05 kts
Lowest cloud amount
few clouds
Temperature
-9°C
Dew point
-14°C
Humidity
66%
Weather condition
n/a

International airport serving Toronto. The airport is located in Mississauga, 27 km northwest of Downtown Toronto.

Climatology

Humid continental climate (Köppen climate classification Dfa)

Runways

Designator Length Width Surface Rops
06R/24L 2743 61 ASP Yes/Yes
15R/33L 2770 61 ASP Yes/Yes
06L/24R 2956 61 ASP Yes/Yes
15L/33R 3368 61 ASP Yes/Yes
5/23 3389 61 PEM Yes/Yes

SKYbrary Partners:

Safety knowledge contributed by: